Time;durP1;ratioP1;P1;durP2;ratioP2;P2;SDS_P1;SDS_P2;PMS_P1;PMS_P2;Temp;Humidity;BMP_temperature;BMP_pressure;BME280_temperature;BME280_humidity;BME280_pressure;Samples;Min_cycle;Max_cycle;Signal;HPM_P1;HPM_P2
2022/10/22 00:01:49;;;;;;;1.73;1.35;;;20.00;59.30;;;;;;6270178;28;20472;-74
2022/10/22 00:04:55;;;;;;;1.38;1.27;;;20.00;59.20;;;;;;6270807;28;20082;-75
2022/10/22 00:07:58;;;;;;;1.52;1.08;;;20.00;59.30;;;;;;6270097;28;20053;-74
2022/10/22 00:11:07;;;;;;;1.40;1.00;;;20.00;59.20;;;;;;6269937;28;20111;-74
2022/10/22 00:14:08;;;;;;;2.22;1.10;;;20.10;59.20;;;;;;6269620;28;20024;-74
2022/10/22 00:17:10;;;;;;;2.00;1.20;;;20.10;59.20;;;;;;6271165;28;20048;-74
2022/10/22 00:20:11;;;;;;;1.67;1.40;;;20.00;59.20;;;;;;6270684;28;20032;-74
2022/10/22 00:23:12;;;;;;;1.58;1.20;;;20.10;59.30;;;;;;6270999;28;20056;-73
2022/10/22 00:26:16;;;;;;;1.55;1.08;;;20.00;59.30;;;;;;6269576;28;20036;-74
2022/10/22 00:29:19;;;;;;;1.40;1.20;;;20.00;59.20;;;;;;6270221;28;20037;-73
2022/10/22 00:32:20;;;;;;;1.40;1.30;;;20.00;59.30;;;;;;6268233;28;20021;-73
2022/10/22 00:35:21;;;;;;;1.33;1.20;;;20.00;59.20;;;;;;6269492;28;20048;-72
2022/10/22 00:38:22;;;;;;;1.45;1.17;;;20.00;59.40;;;;;;6269357;28;20367;-73
2022/10/22 00:41:22;;;;;;;1.48;1.20;;;20.00;59.30;;;;;;6268890;28;20033;-72
2022/10/22 00:44:57;;;;;;;1.95;1.30;;;20.00;59.50;;;;;;6269220;28;20249;-73
2022/10/22 00:47:59;;;;;;;1.10;1.00;;;20.00;59.30;;;;;;6268765;28;20043;-73
2022/10/22 00:51:05;;;;;;;1.17;1.05;;;20.00;59.50;;;;;;6267083;28;20037;-73
2022/10/22 00:54:07;;;;;;;1.08;0.98;;;20.00;59.20;;;;;;6268592;28;20706;-73
2022/10/22 00:57:08;;;;;;;1.40;1.30;;;20.00;59.30;;;;;;6268919;28;20028;-73
2022/10/22 01:00:10;;;;;;;1.20;1.00;;;20.00;59.40;;;;;;6267856;28;20017;-72
2022/10/22 01:03:11;;;;;;;1.30;1.10;;;20.00;59.20;;;;;;6268562;28;20029;-73
2022/10/22 01:06:22;;;;;;;1.27;1.02;;;20.00;59.40;;;;;;6267379;28;20028;-72
2022/10/22 01:09:29;;;;;;;1.65;1.20;;;20.00;59.20;;;;;;6259333;28;20112;-72
2022/10/22 01:12:47;;;;;;;1.65;1.20;;;20.00;59.50;;;;;;6244141;28;20030;-72
2022/10/22 01:16:08;;;;;;;1.15;1.00;;;20.00;59.40;;;;;;6242506;28;20048;-73
2022/10/22 01:19:47;;;;;;;1.13;0.98;;;20.00;59.40;;;;;;6259529;28;20021;-73
2022/10/22 01:23:10;;;;;;;1.73;1.30;;;20.00;59.40;;;;;;6268354;28;20039;-73
2022/10/22 01:26:31;;;;;;;1.23;1.10;;;20.00;59.30;;;;;;6267632;28;20029;-72
2022/10/22 01:29:47;;;;;;;0.85;0.82;;;20.00;59.50;;;;;;6267368;28;20025;-73
2022/10/22 01:32:53;;;;;;;1.15;1.05;;;20.00;59.60;;;;;;6267490;28;20032;-72
2022/10/22 01:35:55;;;;;;;1.30;1.05;;;20.00;59.50;;;;;;6268599;28;20108;-73
2022/10/22 01:38:57;;;;;;;1.38;1.00;;;20.00;59.40;;;;;;6267210;28;20160;-73
2022/10/22 01:41:58;;;;;;;1.25;0.90;;;20.00;59.50;;;;;;6267208;28;20067;-73
2022/10/22 01:44:59;;;;;;;1.13;1.02;;;20.00;59.50;;;;;;6268409;28;20078;-72
2022/10/22 01:48:15;;;;;;;1.00;0.93;;;20.00;59.40;;;;;;6267852;28;20413;-73
2022/10/22 01:51:53;;;;;;;1.23;1.10;;;20.00;59.60;;;;;;6266766;28;20053;-72
2022/10/22 01:55:12;;;;;;;1.08;0.90;;;20.00;59.50;;;;;;6272943;28;20036;-73
2022/10/22 01:59:00;;;;;;;1.67;0.98;;;20.00;59.50;;;;;;6271743;28;20021;-73
2022/10/22 02:02:33;;;;;;;1.13;0.90;;;20.00;59.50;;;;;;6273266;28;20021;-74
2022/10/22 02:05:39;;;;;;;1.10;1.00;;;20.00;59.60;;;;;;6272908;28;20033;-72
2022/10/22 02:08:42;;;;;;;1.10;0.90;;;20.00;59.50;;;;;;6270439;28;20021;-72
2022/10/22 02:11:44;;;;;;;1.10;0.98;;;20.00;59.50;;;;;;6247999;28;20029;-72
2022/10/22 02:14:48;;;;;;;1.20;1.00;;;20.00;59.50;;;;;;6246428;28;20029;-72
2022/10/22 02:17:50;;;;;;;1.45;1.00;;;20.00;59.40;;;;;;6246412;28;20025;-73
2022/10/22 02:20:52;;;;;;;0.80;0.80;;;20.00;59.60;;;;;;6247922;28;20380;-72
2022/10/22 02:23:53;;;;;;;1.60;0.90;;;20.00;59.60;;;;;;6271215;28;20025;-73
2022/10/22 02:26:59;;;;;;;1.35;1.20;;;20.00;59.50;;;;;;6270968;28;20116;-73
2022/10/22 02:30:08;;;;;;;1.00;0.90;;;20.00;59.60;;;;;;6271374;28;20021;-73
2022/10/22 02:33:18;;;;;;;1.02;0.90;;;20.00;59.50;;;;;;6271017;28;20036;-72
2022/10/22 02:36:21;;;;;;;1.40;1.08;;;20.00;59.50;;;;;;6270913;28;20428;-72
2022/10/22 02:39:22;;;;;;;1.00;0.90;;;20.00;59.40;;;;;;6271837;28;20471;-73
2022/10/22 02:42:27;;;;;;;1.02;0.90;;;20.00;59.50;;;;;;6272372;28;20036;-72
2022/10/22 02:45:28;;;;;;;1.00;0.90;;;20.00;59.60;;;;;;6270579;28;20478;-73
2022/10/22 02:48:29;;;;;;;0.80;0.80;;;20.00;59.60;;;;;;6271726;28;20021;-73
2022/10/22 02:51:30;;;;;;;1.05;0.90;;;20.00;59.60;;;;;;6271632;28;20425;-73
2022/10/22 02:54:30;;;;;;;1.30;0.90;;;20.00;59.50;;;;;;6272026;28;20429;-73
2022/10/22 02:57:31;;;;;;;1.00;0.90;;;20.00;59.50;;;;;;6270499;28;20136;-73
2022/10/22 03:00:32;;;;;;;0.80;0.80;;;20.00;59.50;;;;;;6273030;28;20017;-74
2022/10/22 03:03:33;;;;;;;1.17;0.90;;;20.00;59.50;;;;;;6272673;28;20045;-73
2022/10/22 03:06:34;;;;;;;1.05;0.88;;;20.00;59.50;;;;;;6272671;28;20020;-73
2022/10/22 03:09:34;;;;;;;0.80;0.80;;;20.00;59.50;;;;;;6271272;28;20025;-74
2022/10/22 03:12:35;;;;;;;1.00;0.90;;;20.00;59.60;;;;;;6271553;28;20056;-73
2022/10/22 03:15:36;;;;;;;1.10;0.90;;;20.00;59.50;;;;;;6272341;28;20025;-73
2022/10/22 03:18:36;;;;;;;0.80;0.75;;;20.00;59.50;;;;;;6271050;28;20166;-73
2022/10/22 03:21:44;;;;;;;1.30;1.00;;;20.00;59.50;;;;;;6272361;28;20417;-73
2022/10/22 03:24:49;;;;;;;0.80;0.80;;;20.00;60.20;;;;;;6272300;28;20021;-73
2022/10/22 03:27:52;;;;;;;1.15;0.95;;;20.00;59.40;;;;;;6272256;28;20017;-73
2022/10/22 03:30:53;;;;;;;1.05;0.82;;;20.00;59.50;;;;;;6270724;28;20500;-72
2022/10/22 03:33:54;;;;;;;1.00;0.80;;;20.00;59.40;;;;;;6270914;28;20021;-73
2022/10/22 03:36:57;;;;;;;0.68;0.57;;;20.00;59.40;;;;;;6271706;28;20510;-73
2022/10/22 03:39:58;;;;;;;0.80;0.70;;;20.00;59.50;;;;;;6272023;28;20017;-73
2022/10/22 03:42:59;;;;;;;1.30;0.98;;;20.00;59.50;;;;;;6270518;28;20084;-73
2022/10/22 03:45:59;;;;;;;1.23;1.00;;;20.00;59.40;;;;;;6270858;28;20387;-73
2022/10/22 03:49:00;;;;;;;0.82;0.80;;;20.00;59.50;;;;;;6270164;28;20078;-73
2022/10/22 03:52:06;;;;;;;0.85;0.70;;;20.00;60.20;;;;;;6271702;28;20482;-74
2022/10/22 03:55:07;;;;;;;0.95;0.85;;;20.00;59.50;;;;;;6271608;28;20472;-73
2022/10/22 03:58:08;;;;;;;1.38;0.90;;;20.00;59.40;;;;;;6271500;28;20027;-73
2022/10/22 04:01:11;;;;;;;1.00;0.85;;;20.00;59.50;;;;;;6270913;28;20021;-72
2022/10/22 04:04:12;;;;;;;0.70;0.70;;;20.00;59.50;;;;;;6269975;28;20370;-73
2022/10/22 04:07:13;;;;;;;0.90;0.77;;;20.00;59.40;;;;;;6271107;28;20039;-73
2022/10/22 04:10:14;;;;;;;0.95;0.80;;;20.00;59.50;;;;;;6271412;28;20058;-73
2022/10/22 04:13:15;;;;;;;0.77;0.77;;;20.00;60.20;;;;;;6270994;28;20386;-73
2022/10/22 04:16:20;;;;;;;0.80;0.80;;;20.00;59.40;;;;;;6270648;28;20025;-73
2022/10/22 04:19:20;;;;;;;0.80;0.80;;;20.00;59.50;;;;;;6268984;28;20052;-75
2022/10/22 04:22:21;;;;;;;1.00;0.90;;;20.00;59.40;;;;;;6270755;28;20043;-73
2022/10/22 04:25:22;;;;;;;0.80;0.80;;;20.00;59.50;;;;;;6269557;28;20052;-72
2022/10/22 04:28:23;;;;;;;0.70;0.70;;;20.00;59.40;;;;;;6270955;28;20021;-72
2022/10/22 04:31:24;;;;;;;1.17;0.90;;;20.00;59.50;;;;;;6270741;28;20028;-73
2022/10/22 04:34:28;;;;;;;1.67;0.68;;;20.00;59.50;;;;;;6270534;28;20029;-72
2022/10/22 04:37:29;;;;;;;1.48;0.75;;;20.00;59.40;;;;;;6269415;28;20021;-72
2022/10/22 04:40:30;;;;;;;1.15;0.90;;;20.00;59.40;;;;;;6269375;28;20548;-73
2022/10/22 04:43:30;;;;;;;0.90;0.77;;;20.00;59.50;;;;;;6270713;28;20029;-73
2022/10/22 04:46:33;;;;;;;1.08;0.80;;;20.00;59.40;;;;;;6269073;28;20032;-76
2022/10/22 04:49:34;;;;;;;0.80;0.70;;;20.00;59.40;;;;;;6268899;28;20049;-73
2022/10/22 04:52:34;;;;;;;0.98;0.70;;;20.00;59.50;;;;;;6268830;28;20087;-73
2022/10/22 04:55:35;;;;;;;0.95;0.65;;;20.00;59.40;;;;;;6268962;28;20592;-73
2022/10/22 04:58:36;;;;;;;1.10;0.90;;;20.00;59.50;;;;;;6268781;28;20478;-73
2022/10/22 05:01:40;;;;;;;1.15;0.90;;;20.00;59.50;;;;;;6268818;28;20013;-73
2022/10/22 05:04:43;;;;;;;1.00;0.88;;;20.00;59.50;;;;;;6270019;28;20159;-73
2022/10/22 05:07:44;;;;;;;0.82;0.73;;;20.00;59.40;;;;;;6270024;28;20025;-73
2022/10/22 05:10:45;;;;;;;0.82;0.75;;;20.00;59.40;;;;;;6268530;28;20170;-73
2022/10/22 05:13:47;;;;;;;3.10;0.60;;;20.00;59.50;;;;;;6270110;28;20549;-73
2022/10/22 05:16:49;;;;;;;0.75;0.73;;;20.00;59.40;;;;;;6268259;28;20047;-73
2022/10/22 05:19:49;;;;;;;0.98;0.88;;;20.00;59.50;;;;;;6268048;28;20021;-73
2022/10/22 05:22:50;;;;;;;0.88;0.75;;;20.00;59.50;;;;;;6268629;28;20485;-73
2022/10/22 05:25:51;;;;;;;0.63;0.60;;;20.00;59.40;;;;;;6268631;28;20724;-75
2022/10/22 05:28:52;;;;;;;0.68;0.68;;;20.00;60.20;;;;;;6267217;28;20029;-75
2022/10/22 05:31:52;;;;;;;0.80;0.65;;;20.00;59.50;;;;;;6267291;28;20032;-74
2022/10/22 05:34:54;;;;;;;0.85;0.70;;;20.00;59.50;;;;;;6266794;28;20033;-74
2022/10/22 05:37:55;;;;;;;0.60;0.60;;;20.00;59.40;;;;;;6267399;28;20116;-75
2022/10/22 05:41:01;;;;;;;0.70;0.70;;;20.00;59.50;;;;;;6268408;28;20033;-74
2022/10/22 05:44:02;;;;;;;0.65;0.50;;;20.00;59.50;;;;;;6266841;28;20028;-74
2022/10/22 05:47:03;;;;;;;0.75;0.52;;;20.00;59.50;;;;;;6268581;28;20029;-75
2022/10/22 05:50:04;;;;;;;0.80;0.80;;;20.00;59.60;;;;;;6267212;28;20045;-75
2022/10/22 05:53:05;;;;;;;0.65;0.52;;;20.00;59.50;;;;;;6268874;28;20043;-75
2022/10/22 05:56:09;;;;;;;0.70;0.65;;;20.00;59.50;;;;;;6267882;28;20413;-74
2022/10/22 05:59:10;;;;;;;0.70;0.63;;;20.00;59.50;;;;;;6268698;28;20032;-73
2022/10/22 06:02:11;;;;;;;0.80;0.68;;;20.00;59.50;;;;;;6266730;28;20398;-75
2022/10/22 06:05:12;;;;;;;0.88;0.60;;;20.00;59.50;;;;;;6267193;28;20017;-75
2022/10/22 06:08:13;;;;;;;0.82;0.70;;;20.00;59.50;;;;;;6267942;28;20036;-75
2022/10/22 06:11:16;;;;;;;1.02;0.77;;;20.00;59.60;;;;;;6268583;28;20359;-75
2022/10/22 06:14:19;;;;;;;0.60;0.60;;;20.00;59.50;;;;;;6266477;28;20062;-75
2022/10/22 06:17:19;;;;;;;0.82;0.70;;;20.00;59.50;;;;;;6268225;28;20474;-74
2022/10/22 06:20:20;;;;;;;0.88;0.73;;;20.00;59.50;;;;;;6267893;28;20021;-75
2022/10/22 06:23:21;;;;;;;0.50;0.50;;;20.00;59.60;;;;;;6268739;28;20052;-74
2022/10/22 06:26:21;;;;;;;2.40;0.70;;;20.00;59.60;;;;;;6267725;28;20056;-75
2022/10/22 06:29:22;;;;;;;0.95;0.70;;;20.00;59.60;;;;;;6268558;28;20090;-74
2022/10/22 06:32:23;;;;;;;0.90;0.73;;;20.00;59.50;;;;;;6267796;28;20322;-74
2022/10/22 06:35:24;;;;;;;0.60;0.60;;;20.00;59.60;;;;;;6267898;28;20036;-74
2022/10/22 06:38:24;;;;;;;0.50;0.50;;;20.00;59.70;;;;;;6267155;28;20052;-75
2022/10/22 06:41:25;;;;;;;0.60;0.60;;;20.00;59.50;;;;;;6272492;28;20664;-75
2022/10/22 06:44:26;;;;;;;0.55;0.55;;;20.00;59.60;;;;;;6272557;28;20500;-74
2022/10/22 06:47:26;;;;;;;0.52;0.52;;;20.00;59.60;;;;;;6272699;28;20040;-74
2022/10/22 06:50:28;;;;;;;0.80;0.70;;;20.00;59.70;;;;;;6272323;28;20044;-75
2022/10/22 06:53:29;;;;;;;0.80;0.70;;;20.00;59.60;;;;;;6271234;28;20036;-75
2022/10/22 06:56:30;;;;;;;0.50;0.50;;;20.00;59.60;;;;;;6272201;28;20108;-74
2022/10/22 06:59:30;;;;;;;0.60;0.60;;;20.00;59.60;;;;;;6270998;28;20024;-74
2022/10/22 07:02:31;;;;;;;1.27;0.57;;;20.00;59.60;;;;;;6272045;28;20123;-75
2022/10/22 07:05:33;;;;;;;0.70;0.70;;;20.00;59.60;;;;;;6272106;28;20019;-74
2022/10/22 07:08:34;;;;;;;0.63;0.63;;;20.00;59.50;;;;;;6271742;28;20021;-74
2022/10/22 07:11:40;;;;;;;0.93;0.70;;;20.00;59.60;;;;;;6272074;28;20029;-75
2022/10/22 07:14:42;;;;;;;0.60;0.60;;;20.00;59.60;;;;;;6271296;28;20124;-74
2022/10/22 07:17:44;;;;;;;0.75;0.70;;;20.00;59.60;;;;;;6271542;28;20017;-74
2022/10/22 07:20:45;;;;;;;0.77;0.55;;;20.00;59.60;;;;;;6270160;28;20029;-75
2022/10/22 07:23:47;;;;;;;0.65;0.65;;;20.00;59.70;;;;;;6270215;28;20037;-75
2022/10/22 07:26:48;;;;;;;0.60;0.57;;;20.00;59.60;;;;;;6270049;28;20082;-75
2022/10/22 07:29:49;;;;;;;0.60;0.60;;;20.00;59.70;;;;;;6270164;28;20029;-74
2022/10/22 07:32:50;;;;;;;0.60;0.60;;;20.00;59.60;;;;;;6271445;28;20025;-75
2022/10/22 07:35:56;;;;;;;0.85;0.73;;;20.00;59.60;;;;;;6271018;28;20394;-74
2022/10/22 07:38:58;;;;;;;0.60;0.60;;;20.00;59.70;;;;;;6270398;28;20031;-74
2022/10/22 07:41:58;;;;;;;0.55;0.55;;;20.00;59.60;;;;;;6258203;28;20029;-75
2022/10/22 07:44:59;;;;;;;0.70;0.70;;;20.00;59.60;;;;;;6272146;28;20067;-75
2022/10/22 07:48:01;;;;;;;0.60;0.60;;;20.00;59.60;;;;;;6255661;28;20026;-74
2022/10/22 07:51:09;;;;;;;0.50;0.50;;;20.00;59.40;;;;;;6270072;28;20048;-74
2022/10/22 07:54:11;;;;;;;1.05;0.60;;;20.00;59.70;;;;;;6263832;28;20182;-75
2022/10/22 07:57:12;;;;;;;0.70;0.63;;;20.00;59.50;;;;;;6269266;28;20033;-75
2022/10/22 08:00:13;;;;;;;0.82;0.77;;;20.00;59.60;;;;;;6268122;28;20504;-75
2022/10/22 08:03:14;;;;;;;1.70;0.80;;;20.00;59.50;;;;;;6269643;28;20025;-75
2022/10/22 08:06:16;;;;;;;0.73;0.73;;;20.00;59.60;;;;;;6268804;28;20017;-75
2022/10/22 08:09:17;;;;;;;0.50;0.50;;;20.00;59.50;;;;;;6269519;28;20017;-75
2022/10/22 08:12:18;;;;;;;0.55;0.55;;;20.00;59.60;;;;;;6268333;28;20560;-76
2022/10/22 08:15:18;;;;;;;1.17;0.50;;;20.00;59.40;;;;;;6268002;28;20113;-75
2022/10/22 08:18:19;;;;;;;0.40;0.40;;;20.00;59.50;;;;;;6270514;28;20505;-74
2022/10/22 08:21:20;;;;;;;0.88;0.70;;;20.00;59.40;;;;;;6260094;28;20036;-71
2022/10/22 08:24:21;;;;;;;0.70;0.68;;;20.00;59.40;;;;;;6262412;28;20097;-73
2022/10/22 08:27:21;;;;;;;0.82;0.70;;;20.00;60.20;;;;;;6256431;28;20467;-70
2022/10/22 08:30:26;;;;;;;1.75;1.00;;;20.00;59.70;;;;;;6242681;28;20080;-75
2022/10/22 08:33:27;;;;;;;0.85;0.75;;;20.00;59.70;;;;;;6266267;28;20044;-76
2022/10/22 08:36:29;;;;;;;3.22;1.20;;;20.00;59.70;;;;;;6252602;28;20104;-75
2022/10/22 08:39:30;;;;;;;2.75;1.10;;;20.00;59.70;;;;;;6253950;28;20017;-72
2022/10/22 08:42:52;;;;;;;3.78;1.30;;;20.00;59.60;;;;;;6263259;28;20025;-75
2022/10/22 08:46:06;;;;;;;2.03;1.08;;;20.00;59.60;;;;;;6254919;28;20112;-75
2022/10/22 08:49:16;;;;;;;2.25;1.13;;;20.00;59.60;;;;;;6265336;28;20053;-77
2022/10/22 08:52:18;;;;;;;1.58;1.05;;;20.00;59.70;;;;;;6268266;28;20533;-75
2022/10/22 08:55:22;;;;;;;1.30;1.00;;;20.00;59.70;;;;;;6268573;28;20021;-75
2022/10/22 08:58:32;;;;;;;4.67;1.27;;;20.00;59.70;;;;;;6259398;28;20026;-76
2022/10/22 09:01:40;;;;;;;2.05;1.20;;;20.00;59.70;;;;;;6267665;28;20025;-75
2022/10/22 09:04:51;;;;;;;3.10;1.40;;;20.00;59.70;;;;;;6268272;28;20579;-76
2022/10/22 09:07:54;;;;;;;1.30;1.00;;;20.10;59.80;;;;;;6266962;28;20029;-76
2022/10/22 09:11:02;;;;;;;2.92;1.17;;;20.00;59.70;;;;;;6266544;28;20021;-75
2022/10/22 09:14:05;;;;;;;5.60;1.27;;;20.00;59.70;;;;;;6268240;28;20024;-74
2022/10/22 09:17:20;;;;;;;2.30;1.20;;;20.00;59.70;;;;;;6268797;28;20028;-75
2022/10/22 09:20:27;;;;;;;;;;;20.00;59.70;;;;;;6237886;28;20538;-76
2022/10/22 09:23:35;;;;;;;2.17;1.40;;;20.00;59.70;;;;;;6256483;28;19905;-74
2022/10/22 09:26:37;;;;;;;4.25;1.10;;;20.00;59.70;;;;;;6268211;28;20128;-74
2022/10/22 09:29:39;;;;;;;1.50;1.10;;;20.00;59.80;;;;;;6254020;28;20083;-76
2022/10/22 09:32:39;;;;;;;4.40;1.10;;;20.00;59.80;;;;;;6265739;28;20119;-75
2022/10/22 09:35:52;;;;;;;3.35;1.50;;;20.00;59.80;;;;;;6265873;28;20025;-75
2022/10/22 09:38:53;;;;;;;6.88;1.38;;;20.00;59.80;;;;;;6266664;28;20121;-75
2022/10/22 09:41:53;;;;;;;1.38;1.00;;;20.00;59.70;;;;;;6268659;28;20021;-74
2022/10/22 09:44:58;;;;;;;1.70;1.20;;;20.00;59.90;;;;;;6256324;28;20017;-75
2022/10/22 09:48:11;;;;;;;5.32;1.00;;;20.00;59.80;;;;;;6267516;28;20104;-76
2022/10/22 09:51:22;;;;;;;1.42;1.00;;;20.00;59.70;;;;;;6243261;28;20682;-73
2022/10/22 09:54:43;;;;;;;4.88;1.33;;;20.00;59.80;;;;;;6250944;28;20086;-73
2022/10/22 09:57:52;;;;;;;2.08;1.35;;;20.00;59.80;;;;;;6267706;28;20501;-73
2022/10/22 10:00:56;;;;;;;2.03;1.52;;;20.00;59.80;;;;;;6267361;28;20048;-74
2022/10/22 10:04:09;;;;;;;2.72;1.15;;;20.00;59.80;;;;;;6268291;28;20115;-73
2022/10/22 10:07:24;;;;;;;4.85;0.93;;;20.00;59.80;;;;;;6262498;28;20028;-73
2022/10/22 10:10:44;;;;;;;;;;;20.00;59.90;;;;;;6265143;28;20052;-73
2022/10/22 10:14:08;;;;;;;1.65;1.20;;;20.00;59.90;;;;;;6256922;28;19909;-73
2022/10/22 10:17:32;;;;;;;3.20;1.10;;;20.00;59.90;;;;;;6241902;28;20133;-74
2022/10/22 10:20:37;;;;;;;1.15;0.90;;;20.00;60.00;;;;;;6246707;28;20096;-73
2022/10/22 10:23:44;;;;;;;;;;;20.00;60.00;;;;;;6246570;28;20099;-73
2022/10/22 10:26:55;;;;;;;1.20;0.80;;;20.00;59.90;;;;;;6270507;28;19954;-73
2022/10/22 10:30:01;;;;;;;1.38;1.08;;;20.00;59.90;;;;;;6264663;28;20060;-73
2022/10/22 10:33:18;;;;;;;1.50;0.98;;;20.00;59.90;;;;;;6239961;28;20052;-74
2022/10/22 10:36:24;;;;;;;2.65;1.40;;;20.00;59.90;;;;;;6252288;28;20052;-73
2022/10/22 10:40:03;;;;;;;1.40;1.13;;;20.00;59.90;;;;;;6246346;28;20118;-73
2022/10/22 10:43:21;;;;;;;1.08;0.90;;;20.00;59.90;;;;;;6246084;28;20041;-73
2022/10/22 10:46:28;;;;;;;2.15;1.20;;;20.00;59.90;;;;;;6261710;28;20108;-73
2022/10/22 10:49:32;;;;;;;1.42;1.05;;;20.00;60.00;;;;;;6270552;28;20044;-73
2022/10/22 11:16:43;;;;;;;1.83;1.10;;;20.00;60.00;;;;;;6261449;28;20035;-72
2022/10/22 11:24:24;;;;;;;1.58;1.00;;;20.00;59.90;;;;;;6308324;28;20035;-74
2022/10/22 11:28:19;;;;;;;1.48;1.10;;;20.00;59.90;;;;;;6318022;28;20107;-73
2022/10/22 11:31:26;;;;;;;1.60;0.93;;;20.00;60.00;;;;;;6301385;28;20027;-73
2022/10/22 11:34:53;;;;;;;1.35;0.90;;;20.00;60.00;;;;;;6320024;28;20020;-72
2022/10/22 11:37:56;;;;;;;2.40;1.00;;;20.00;59.90;;;;;;6316449;28;20054;-73
2022/10/22 11:41:04;;;;;;;1.83;1.05;;;20.00;60.00;;;;;;6300878;28;20028;-73
2022/10/22 11:44:29;;;;;;;1.20;1.00;;;20.00;60.10;;;;;;6319574;28;20361;-73
2022/10/22 11:51:39;;;;;;;1.48;0.93;;;20.00;60.10;;;;;;6252364;28;20134;-73
2022/10/22 11:54:44;;;;;;;1.60;1.00;;;20.00;60.10;;;;;;6300884;28;20392;-73
2022/10/22 12:05:40;;;;;;;1.55;0.90;;;20.00;60.00;;;;;;6300909;28;20393;-74
2022/10/22 12:08:52;;;;;;;1.00;0.90;;;20.00;60.10;;;;;;6293251;28;20032;-73
2022/10/22 12:12:01;;;;;;;2.33;1.00;;;20.00;60.00;;;;;;6319098;28;20024;-74
2022/10/22 12:15:20;;;;;;;0.68;0.65;;;20.00;60.10;;;;;;6300756;28;20020;-73
2022/10/22 12:18:31;;;;;;;1.08;0.90;;;20.00;60.10;;;;;;6317745;28;20358;-73
2022/10/22 12:21:33;;;;;;;0.80;0.80;;;20.00;60.20;;;;;;6304084;28;20588;-73
2022/10/22 12:24:39;;;;;;;1.40;0.93;;;20.00;60.20;;;;;;6325462;28;20049;-73
2022/10/22 12:27:42;;;;;;;1.25;1.05;;;20.00;60.20;;;;;;6312170;28;20016;-73
2022/10/22 12:34:49;;;;;;;1.27;1.05;;;20.00;60.20;;;;;;6294093;28;20028;-73
2022/10/22 12:38:13;;;;;;;1.55;1.05;;;20.00;60.20;;;;;;6329142;28;20654;-73
2022/10/22 12:41:18;;;;;;;1.00;0.90;;;20.00;60.20;;;;;;6291285;28;20793;-73
2022/10/22 12:44:20;;;;;;;1.35;0.98;;;20.00;60.20;;;;;;6285848;28;20028;-74
2022/10/22 12:47:21;;;;;;;1.02;0.82;;;20.00;60.30;;;;;;6290706;28;20076;-73
2022/10/22 12:50:37;;;;;;;1.25;0.80;;;20.00;60.30;;;;;;6284716;28;20048;-73
2022/10/22 12:53:44;;;;;;;0.80;0.80;;;20.00;60.20;;;;;;6264379;28;20115;-73
2022/10/22 12:56:47;;;;;;;2.55;1.05;;;20.00;60.20;;;;;;6287549;28;20034;-73
2022/10/22 12:59:50;;;;;;;0.80;0.63;;;20.00;60.40;;;;;;6274755;28;20086;-73
2022/10/22 13:02:52;;;;;;;1.17;0.80;;;20.00;60.30;;;;;;6266358;28;20043;-73
2022/10/22 13:05:53;;;;;;;1.05;0.90;;;20.00;60.30;;;;;;6276113;28;20029;-74
2022/10/22 13:09:19;;;;;;;1.58;0.98;;;20.00;60.20;;;;;;6299154;28;20435;-73
2022/10/22 13:12:34;;;;;;;1.52;0.70;;;20.00;60.30;;;;;;6287315;28;20024;-73
2022/10/22 13:15:40;;;;;;;1.35;0.90;;;20.00;60.90;;;;;;6274913;28;20055;-73
2022/10/22 13:18:54;;;;;;;0.60;0.60;;;20.00;60.40;;;;;;6291092;28;20104;-73
2022/10/22 13:22:35;;;;;;;0.98;0.80;;;20.00;60.30;;;;;;6291597;28;20020;-74
2022/10/22 13:25:38;;;;;;;2.03;0.77;;;20.00;60.30;;;;;;6262418;28;20082;-74
2022/10/22 13:28:52;;;;;;;0.50;0.50;;;20.00;60.40;;;;;;6280900;28;20051;-73
2022/10/22 13:31:53;;;;;;;0.95;0.80;;;20.00;60.30;;;;;;6264766;28;20486;-74
2022/10/22 13:34:56;;;;;;;0.77;0.77;;;20.00;60.40;;;;;;6273912;28;20032;-73
2022/10/22 13:37:59;;;;;;;1.00;0.60;;;20.00;60.40;;;;;;6278627;28;20016;-73
2022/10/22 13:41:04;;;;;;;0.80;0.70;;;20.00;60.40;;;;;;6274813;28;20024;-73
2022/10/22 13:44:05;;;;;;;1.42;0.52;;;20.00;60.30;;;;;;6317686;28;20451;-74
2022/10/22 13:47:33;;;;;;;0.95;0.70;;;20.00;60.30;;;;;;6273905;28;20359;-73
2022/10/22 13:50:38;;;;;;;0.77;0.68;;;20.00;60.40;;;;;;6269143;28;20079;-73
2022/10/22 13:53:41;;;;;;;0.80;0.70;;;20.00;60.40;;;;;;6286622;28;20033;-74
2022/10/22 13:56:50;;;;;;;0.93;0.70;;;20.00;60.40;;;;;;6275952;28;20021;-74
2022/10/22 13:59:50;;;;;;;0.65;0.60;;;20.00;60.40;;;;;;6288072;28;20107;-73
2022/10/22 14:02:59;;;;;;;0.77;0.70;;;20.00;60.40;;;;;;6264138;28;20114;-73
2022/10/22 14:06:01;;;;;;;1.25;0.70;;;20.00;60.30;;;;;;6271819;28;20057;-73
2022/10/22 14:09:07;;;;;;;0.73;0.70;;;20.00;60.50;;;;;;6261335;28;20020;-73
2022/10/22 14:12:33;;;;;;;1.10;1.00;;;20.00;60.40;;;;;;6268546;28;20040;-74
2022/10/22 14:15:34;;;;;;;0.77;0.60;;;20.00;60.40;;;;;;6279012;28;20032;-73
2022/10/22 14:18:47;;;;;;;0.75;0.60;;;20.00;60.40;;;;;;6260871;28;20033;-74
2022/10/22 14:21:54;;;;;;;0.60;0.60;;;20.00;60.40;;;;;;6272983;28;20211;-73
2022/10/22 14:24:55;;;;;;;0.90;0.70;;;20.00;60.40;;;;;;6285447;28;20035;-73
2022/10/22 14:28:06;;;;;;;0.50;0.50;;;20.00;60.50;;;;;;6274111;28;20541;-74
2022/10/22 14:31:16;;;;;;;0.63;0.60;;;20.00;60.40;;;;;;6277656;28;20024;-74
2022/10/22 14:34:18;;;;;;;0.82;0.60;;;20.00;60.40;;;;;;6277259;28;20039;-73
2022/10/22 14:37:19;;;;;;;0.73;0.60;;;20.00;60.40;;;;;;6289017;28;20362;-74
2022/10/22 14:40:21;;;;;;;0.77;0.50;;;20.00;60.40;;;;;;6268905;28;20028;-73
2022/10/22 14:43:27;;;;;;;0.60;0.57;;;20.00;60.40;;;;;;6285964;28;20355;-73
2022/10/22 14:46:28;;;;;;;1.02;0.63;;;20.00;60.40;;;;;;6272668;28;20031;-74
2022/10/22 14:49:29;;;;;;;0.85;0.60;;;20.00;60.50;;;;;;6298059;28;20042;-73
2022/10/22 14:52:30;;;;;;;0.60;0.50;;;20.00;60.40;;;;;;6320638;28;20373;-74
2022/10/22 14:55:31;;;;;;;0.60;0.52;;;20.00;60.40;;;;;;6309265;28;20370;-73
2022/10/22 14:58:38;;;;;;;2.58;0.77;;;20.00;60.40;;;;;;6313627;28;20027;-73
2022/10/22 15:01:40;;;;;;;0.82;0.65;;;20.00;60.50;;;;;;6300919;28;20025;-73
2022/10/22 15:04:43;;;;;;;0.50;0.50;;;20.00;60.50;;;;;;6320910;28;20020;-73
2022/10/22 15:07:51;;;;;;;0.50;0.50;;;20.00;60.50;;;;;;6303668;28;20071;-73
2022/10/22 15:11:03;;;;;;;0.68;0.55;;;20.00;60.50;;;;;;6300316;28;20020;-73
2022/10/22 15:14:04;;;;;;;0.60;0.52;;;20.00;60.50;;;;;;6301487;28;20024;-73
2022/10/22 15:17:06;;;;;;;0.40;0.40;;;20.00;60.50;;;;;;6319717;28;20016;-74
2022/10/22 15:20:08;;;;;;;0.50;0.50;;;20.00;60.50;;;;;;6301200;28;20031;-73
2022/10/22 15:23:10;;;;;;;1.17;0.68;;;20.00;60.40;;;;;;6322616;28;20027;-73
2022/10/22 15:26:22;;;;;;;0.57;0.50;;;20.00;60.40;;;;;;6318865;28;20031;-73
2022/10/22 15:29:23;;;;;;;0.70;0.60;;;20.00;60.50;;;;;;6319073;28;20507;-73
2022/10/22 15:32:32;;;;;;;0.70;0.70;;;20.00;60.50;;;;;;6301821;28;20117;-73
2022/10/22 15:35:45;;;;;;;0.60;0.50;;;20.00;61.40;;;;;;6318984;28;20661;-74
2022/10/22 15:38:47;;;;;;;0.90;0.70;;;20.00;60.50;;;;;;6301213;28;20020;-73
2022/10/22 15:41:59;;;;;;;0.55;0.50;;;20.00;60.50;;;;;;6296190;28;20047;-74
2022/10/22 15:45:02;;;;;;;0.52;0.50;;;20.00;60.40;;;;;;6285699;28;20463;-74
2022/10/22 15:48:56;;;;;;;0.60;0.50;;;20.00;60.50;;;;;;6299864;28;20107;-73
2022/10/22 15:56:08;;;;;;;0.68;0.57;;;20.00;60.50;;;;;;6318479;28;20040;-73
2022/10/22 15:59:38;;;;;;;0.70;0.60;;;20.00;60.50;;;;;;6303967;28;20032;-74
2022/10/22 16:02:48;;;;;;;0.60;0.52;;;20.00;60.60;;;;;;6318811;28;20039;-73
2022/10/22 16:06:01;;;;;;;0.47;0.47;;;20.00;61.30;;;;;;6318323;28;20480;-73
2022/10/22 16:09:06;;;;;;;0.73;0.60;;;20.00;60.50;;;;;;6296004;28;20028;-73
2022/10/22 16:12:08;;;;;;;0.82;0.60;;;20.00;60.60;;;;;;6297962;28;20085;-73
2022/10/22 16:15:11;;;;;;;0.63;0.55;;;20.00;60.50;;;;;;6317860;28;20077;-73
2022/10/22 16:18:13;;;;;;;1.50;0.70;;;20.00;60.50;;;;;;6291966;28;20020;-73
2022/10/22 16:21:48;;;;;;;1.13;0.60;;;20.00;60.60;;;;;;6282815;28;20012;-74
2022/10/22 16:25:01;;;;;;;0.77;0.60;;;20.00;60.60;;;;;;6324632;28;20022;-73
2022/10/22 16:28:18;;;;;;;1.10;0.60;;;20.00;60.80;;;;;;6295544;28;20028;-74
2022/10/22 16:31:19;;;;;;;0.60;0.60;;;20.00;60.50;;;;;;6318490;28;20070;-73
2022/10/22 16:34:21;;;;;;;0.40;0.40;;;20.00;60.60;;;;;;6300443;28;20031;-71
2022/10/22 16:37:21;;;;;;;0.40;0.40;;;20.00;60.50;;;;;;6318177;28;20055;-72
2022/10/22 16:40:22;;;;;;;2.05;0.60;;;20.00;60.50;;;;;;6310774;28;20027;-73
2022/10/22 16:43:23;;;;;;;2.28;0.80;;;20.00;60.50;;;;;;6317827;28;20063;-72
2022/10/22 16:46:27;;;;;;;1.48;0.70;;;20.00;60.60;;;;;;6318040;28;20550;-72
2022/10/22 16:49:27;;;;;;;0.85;0.60;;;20.00;60.60;;;;;;6314398;28;20063;-73
2022/10/22 16:52:28;;;;;;;0.80;0.50;;;20.00;60.60;;;;;;6312680;28;20036;-72
2022/10/22 16:55:29;;;;;;;0.60;0.50;;;20.00;60.60;;;;;;6317729;28;20067;-72
2022/10/22 16:58:29;;;;;;;0.75;0.60;;;20.00;60.50;;;;;;6317744;28;20135;-72